createdAt,value
2022-08-18T00:01:33.692Z,63.79
2022-08-18T00:11:08.453Z,63.58
2022-08-18T00:20:42.898Z,64.69
2022-08-18T00:30:17.270Z,65.00
2022-08-18T00:39:52.039Z,64.77
2022-08-18T00:49:28.210Z,64.15
2022-08-18T00:59:01.604Z,63.66
2022-08-18T01:08:36.471Z,63.58
2022-08-18T01:18:12.708Z,63.55
2022-08-18T01:27:46.299Z,64.16
2022-08-18T01:37:20.726Z,64.00
2022-08-18T01:46:55.243Z,64.95
2022-08-18T01:56:29.542Z,65.01
2022-08-18T02:06:04.102Z,66.29
2022-08-18T02:15:38.872Z,65.54
2022-08-18T02:25:13.542Z,66.15
2022-08-18T02:34:48.416Z,66.53
2022-08-18T02:44:24.683Z,66.58
2022-08-18T02:53:57.841Z,65.94
2022-08-18T03:03:32.516Z,65.34
2022-08-18T03:13:07.518Z,65.86
2022-08-18T03:22:42.350Z,66.50
2022-08-18T03:32:16.970Z,66.57
2022-08-18T03:41:57.827Z,66.73
2022-08-18T03:51:26.947Z,67.17
2022-08-18T04:01:05.043Z,67.29
2022-08-18T04:10:36.367Z,67.13
2022-08-18T04:20:10.873Z,67.13
2022-08-18T04:29:43.830Z,67.05
2022-08-18T04:39:18.501Z,67.60
2022-08-18T04:48:53.135Z,67.90
2022-08-18T04:49:57.303Z,67.90
2022-08-18T04:59:29.701Z,68.14
2022-08-18T05:09:05.947Z,68.45
2022-08-18T05:18:38.890Z,68.87
2022-08-18T05:28:13.113Z,68.51
2022-08-18T05:37:51.107Z,68.10
2022-08-18T05:47:23.710Z,68.07
2022-08-18T05:56:59.875Z,67.64
2022-08-18T06:06:30.155Z,71.59
2022-08-18T06:16:05.663Z,76.96
2022-08-18T06:25:36.939Z,76.68
2022-08-18T06:35:10.976Z,77.84
2022-08-18T06:44:47.295Z,77.52
2022-08-18T06:54:21.349Z,79.14
2022-08-18T07:03:53.979Z,79.45
2022-08-18T07:13:30.059Z,79.91
2022-08-18T07:14:32.739Z,79.86
2022-08-18T07:24:24.136Z,81.02
2022-08-18T07:25:09.072Z,79.91
2022-08-18T07:26:15.236Z,79.29
2022-08-18T07:27:17.243Z,78.09
2022-08-18T07:28:21.241Z,77.06
2022-08-18T07:29:25.177Z,76.62
2022-08-18T07:30:27.626Z,77.49
2022-08-18T07:31:30.035Z,78.22
2022-08-18T07:41:03.137Z,79.17
2022-08-18T07:42:07.261Z,79.54
2022-08-18T07:43:09.606Z,79.73
2022-08-18T07:44:13.899Z,79.27
2022-08-18T07:45:14.695Z,79.51
2022-08-18T07:46:17.117Z,79.40
2022-08-18T07:47:19.706Z,78.98
2022-08-18T07:48:38.903Z,78.77
2022-08-18T07:49:24.739Z,79.27
2022-08-18T07:50:55.375Z,79.40
2022-08-18T07:51:32.557Z,79.61
2022-08-18T07:52:36.793Z,79.99
2022-08-18T07:53:36.880Z,79.99
2022-08-18T07:54:49.659Z,80.28
2022-08-18T07:55:42.843Z,80.11
2022-08-18T07:56:45.344Z,80.29
2022-08-18T07:57:49.482Z,80.16
2022-08-18T07:58:51.776Z,79.48
2022-08-18T07:59:54.319Z,78.55
2022-08-18T08:00:59.056Z,79.01
2022-08-18T08:01:59.402Z,78.92
2022-08-18T08:03:01.931Z,78.94
2022-08-18T08:04:04.464Z,78.89
2022-08-18T08:05:07.077Z,79.06
2022-08-18T08:06:09.589Z,79.74
2022-08-18T08:07:27.449Z,79.72
2022-08-18T08:08:14.574Z,79.49
2022-08-18T08:09:17.111Z,79.71
2022-08-18T08:10:22.618Z,79.87
2022-08-18T08:11:26.531Z,80.10
2022-08-18T08:12:30.526Z,79.30
2022-08-18T08:13:53.871Z,78.65
2022-08-18T08:14:35.447Z,78.94
2022-08-18T08:15:39.575Z,79.78
2022-08-18T08:16:43.564Z,79.75
2022-08-18T08:17:47.586Z,80.10
2022-08-18T08:18:49.982Z,79.82
2022-08-18T08:20:01.122Z,79.79
2022-08-18T08:20:55.102Z,79.77
2022-08-18T08:21:57.671Z,79.73
2022-08-18T08:23:00.158Z,79.47
2022-08-18T08:24:02.751Z,79.35
2022-08-18T08:25:13.641Z,79.64
2022-08-18T08:26:07.882Z,80.22
2022-08-18T08:27:10.408Z,80.05
2022-08-18T08:28:14.565Z,79.37
2022-08-18T08:29:17.053Z,79.73
2022-08-18T08:30:19.553Z,78.54
2022-08-18T08:39:52.060Z,77.65
2022-08-18T08:40:54.583Z,76.72
2022-08-18T08:41:57.873Z,75.38
2022-08-18T08:42:59.789Z,75.43
2022-08-18T08:44:02.340Z,75.28
2022-08-18T08:45:04.896Z,75.82
2022-08-18T08:46:08.449Z,75.54
2022-08-18T08:47:10.977Z,75.37
2022-08-18T08:48:14.621Z,76.02
2022-08-18T08:49:16.098Z,76.02
2022-08-18T08:50:18.687Z,75.96
2022-08-18T08:51:21.209Z,76.14
2022-08-18T08:52:23.709Z,76.63
2022-08-18T08:53:27.868Z,77.10
2022-08-18T08:54:30.310Z,76.69
2022-08-18T08:55:32.757Z,76.37
2022-08-18T08:56:36.913Z,77.02
2022-08-18T08:57:39.240Z,77.26
2022-08-18T08:58:41.722Z,77.82
2022-08-18T08:59:45.818Z,78.13
2022-08-18T09:00:51.480Z,77.88
2022-08-18T09:01:52.230Z,78.07
2022-08-18T09:02:54.694Z,76.92
2022-08-18T09:03:58.948Z,77.51
2022-08-18T09:05:07.904Z,77.83
2022-08-18T09:06:03.930Z,77.80
2022-08-18T09:07:08.077Z,78.36
2022-08-18T09:08:10.581Z,77.69
2022-08-18T09:09:13.136Z,77.59
2022-08-18T09:10:15.776Z,77.45
2022-08-18T09:11:18.231Z,78.48
2022-08-18T09:12:20.755Z,79.28
2022-08-18T09:13:26.968Z,78.99
2022-08-18T09:14:27.459Z,78.58
2022-08-18T09:15:30.032Z,78.53
2022-08-18T09:16:32.620Z,77.17
2022-08-18T09:17:36.686Z,76.50
2022-08-18T09:18:39.131Z,77.32
2022-08-18T09:19:44.391Z,78.01
2022-08-18T09:20:49.136Z,77.98
2022-08-18T09:21:50.984Z,78.00
2022-08-18T09:22:53.484Z,77.70
2022-08-18T09:23:55.893Z,76.58
2022-08-18T09:24:58.496Z,75.83
2022-08-18T09:26:02.694Z,74.98
2022-08-18T09:27:05.187Z,75.99
2022-08-18T09:28:11.107Z,74.68
2022-08-18T09:29:11.801Z,73.60
2022-08-18T09:30:14.599Z,74.20
2022-08-18T09:31:19.493Z,73.81
2022-08-18T09:32:22.731Z,73.19
2022-08-18T09:33:26.855Z,73.94
2022-08-18T09:34:29.114Z,73.56
2022-08-18T09:35:31.887Z,73.18
2022-08-18T09:36:34.403Z,74.43
2022-08-18T09:37:39.870Z,74.27
2022-08-18T09:38:43.156Z,73.74
2022-08-18T09:39:49.090Z,72.30
2022-08-18T09:41:02.217Z,71.84
2022-08-18T09:41:51.023Z,71.46
2022-08-18T09:42:53.559Z,72.60
2022-08-18T09:43:56.337Z,73.57
2022-08-18T09:44:58.859Z,74.64
2022-08-18T09:46:01.478Z,75.19
2022-08-18T09:47:04.210Z,76.26
2022-08-18T09:48:08.829Z,75.54
2022-08-18T09:49:10.274Z,75.47
2022-08-18T09:50:24.469Z,75.36
2022-08-18T09:51:17.479Z,73.49
2022-08-18T09:52:20.559Z,74.27
2022-08-18T09:53:23.002Z,74.15
2022-08-18T09:54:25.571Z,74.37
2022-08-18T09:55:28.901Z,74.38
2022-08-18T09:56:32.406Z,75.22
2022-08-18T09:57:41.382Z,74.56
2022-08-18T09:58:39.061Z,75.05
2022-08-18T09:59:41.861Z,73.90
2022-08-18T10:00:44.272Z,74.02
2022-08-18T10:02:56.153Z,75.43
2022-08-18T10:03:58.107Z,75.82
2022-08-18T10:06:12.359Z,76.00
2022-08-18T10:07:13.090Z,74.79
2022-08-18T10:08:21.171Z,73.92
2022-08-18T10:09:26.894Z,73.66
2022-08-18T10:10:58.900Z,74.09
2022-08-18T10:11:27.539Z,74.54
2022-08-18T10:12:29.943Z,72.78
2022-08-18T10:13:32.531Z,72.19
2022-08-18T10:14:35.111Z,70.23
2022-08-18T10:15:40.520Z,71.94
2022-08-18T10:17:49.955Z,74.40
2022-08-18T10:18:53.090Z,73.06
2022-08-18T10:19:54.653Z,73.27
2022-08-18T10:21:02.807Z,74.47
2022-08-18T10:22:05.048Z,72.72
2022-08-18T10:23:07.529Z,68.18
2022-08-18T10:25:23.603Z,69.82
2022-08-18T10:26:19.637Z,70.15
2022-08-18T10:27:23.881Z,71.60
2022-08-18T10:28:26.299Z,70.37
2022-08-18T10:29:31.449Z,68.73
2022-08-18T10:30:34.356Z,69.24
2022-08-18T10:31:36.429Z,70.57
2022-08-18T10:32:40.616Z,67.93
2022-08-18T10:33:43.094Z,67.98
2022-08-18T10:34:49.167Z,68.26
2022-08-18T10:35:52.720Z,67.91
2022-08-18T10:37:59.525Z,68.01
2022-08-18T10:39:02.065Z,67.81
2022-08-18T10:40:04.691Z,68.44
2022-08-18T10:41:10.135Z,67.38
2022-08-18T10:42:11.168Z,67.47
2022-08-18T10:52:51.263Z,66.96
2022-08-18T10:53:50.426Z,64.83
2022-08-18T10:55:55.131Z,65.86
2022-08-18T10:56:57.863Z,68.29
2022-08-18T10:58:05.410Z,66.78
2022-08-18T10:59:07.596Z,66.13
2022-08-18T11:00:11.356Z,65.10
2022-08-18T11:01:13.672Z,64.70
2022-08-18T11:02:16.380Z,66.02
2022-08-18T11:03:42.917Z,65.28
2022-08-18T11:04:33.040Z,64.90
2022-08-18T11:05:25.125Z,65.08
2022-08-18T11:06:30.372Z,64.40
2022-08-18T11:07:34.215Z,64.58
2022-08-18T11:08:37.044Z,61.99
2022-08-18T11:09:45.927Z,62.53
2022-08-18T11:11:52.490Z,62.17
2022-08-18T11:12:48.954Z,62.25
2022-08-18T11:13:51.495Z,63.11
2022-08-18T11:14:55.684Z,64.37
2022-08-18T11:15:59.802Z,62.63
2022-08-18T11:17:02.282Z,60.55
2022-08-18T11:18:04.900Z,61.30
2022-08-18T11:19:07.620Z,61.54
2022-08-18T11:20:10.174Z,60.92
2022-08-18T11:21:14.303Z,61.44
2022-08-18T11:22:16.847Z,62.92
2022-08-18T11:23:19.510Z,61.85
2022-08-18T11:24:23.585Z,62.34
2022-08-18T11:25:27.997Z,62.66
2022-08-18T11:26:30.134Z,62.68
2022-08-18T11:27:32.712Z,62.85
2022-08-18T11:28:38.940Z,62.39
2022-08-18T11:29:37.865Z,62.40
2022-08-18T11:30:40.428Z,60.99
2022-08-18T11:31:45.983Z,60.80
2022-08-18T11:32:51.928Z,58.57
2022-08-18T11:33:51.323Z,57.76
2022-08-18T11:34:53.704Z,57.80
2022-08-18T11:35:56.122Z,60.16
2022-08-18T11:37:00.293Z,58.22
2022-08-18T11:38:02.703Z,59.42
2022-08-18T11:39:08.127Z,59.09
2022-08-18T11:40:14.008Z,58.44
2022-08-18T11:41:13.391Z,59.42
2022-08-18T11:42:15.638Z,57.09
2022-08-18T11:43:21.480Z,58.12
2022-08-18T11:44:22.208Z,58.19
2022-08-18T11:45:26.499Z,57.77
2022-08-18T11:46:30.222Z,57.24
2022-08-18T11:47:33.118Z,55.09
2022-08-18T11:48:36.185Z,57.36
2022-08-18T11:49:38.151Z,57.10
2022-08-18T11:50:43.603Z,56.60
2022-08-18T11:51:45.920Z,54.23
2022-08-18T11:52:48.549Z,55.10
2022-08-18T11:53:57.550Z,54.39
2022-08-18T11:54:55.303Z,56.35
2022-08-18T11:55:59.281Z,58.91
2022-08-18T11:57:04.454Z,56.35
2022-08-18T11:58:10.361Z,55.00
2022-08-18T11:59:11.620Z,55.93
2022-08-18T12:00:23.904Z,55.49
2022-08-18T12:01:17.489Z,54.26
2022-08-18T12:10:51.085Z,54.05
2022-08-18T12:11:53.305Z,54.79
2022-08-18T12:12:56.247Z,53.29
2022-08-18T12:13:58.466Z,54.15
2022-08-18T12:15:11.974Z,54.44
2022-08-18T12:16:05.158Z,53.61
2022-08-18T12:17:07.536Z,53.70
2022-08-18T12:18:10.140Z,52.99
2022-08-18T12:19:12.557Z,54.58
2022-08-18T12:20:15.095Z,53.96
2022-08-18T12:21:19.227Z,54.75
2022-08-18T12:22:23.207Z,54.01
2022-08-18T12:23:25.615Z,51.03
2022-08-18T12:24:34.700Z,52.63
2022-08-18T12:25:33.037Z,50.36
2022-08-18T12:26:38.439Z,51.83
2022-08-18T12:27:38.083Z,51.69
2022-08-18T12:28:40.597Z,50.48
2022-08-18T12:29:44.681Z,49.27
2022-08-18T12:30:48.687Z,47.86
2022-08-18T12:31:52.619Z,48.77
2022-08-18T12:32:56.528Z,48.34
2022-08-18T12:33:59.682Z,49.42
2022-08-18T12:35:05.242Z,48.14
2022-08-18T12:37:10.363Z,49.76
2022-08-18T12:38:12.607Z,50.48
2022-08-18T12:39:10.085Z,51.03
2022-08-18T12:40:12.622Z,52.28
2022-08-18T12:41:17.478Z,51.54
2022-08-18T12:50:50.384Z,52.56
2022-08-18T12:51:50.679Z,51.65
2022-08-18T12:52:52.968Z,48.64
2022-08-18T12:53:58.677Z,49.64
2022-08-18T12:54:57.893Z,50.75
2022-08-18T12:56:01.971Z,50.54
2022-08-18T12:57:04.364Z,51.60
2022-08-18T12:58:08.523Z,51.98
2022-08-18T12:59:11.003Z,51.60
2022-08-18T13:00:16.846Z,51.30
2022-08-18T13:01:17.428Z,51.33
2022-08-18T13:02:20.109Z,52.65
2022-08-18T13:03:24.157Z,52.30
2022-08-18T13:04:26.787Z,51.70
2022-08-18T13:05:30.626Z,51.26
2022-08-18T13:06:32.970Z,52.07
2022-08-18T13:07:35.551Z,52.13
2022-08-18T13:08:38.203Z,49.89
2022-08-18T13:09:48.571Z,52.78
2022-08-18T13:10:45.293Z,51.36
2022-08-18T13:11:45.642Z,52.56
2022-08-18T13:12:48.080Z,51.62
2022-08-18T13:13:52.885Z,51.17
2022-08-18T13:14:54.674Z,51.92
2022-08-18T13:16:01.375Z,51.27
2022-08-18T13:17:03.037Z,51.12
2022-08-18T13:18:05.363Z,50.68
2022-08-18T13:19:07.875Z,50.55
2022-08-18T13:20:10.431Z,51.20
2022-08-18T13:21:12.944Z,50.03
2022-08-18T13:22:15.420Z,50.55
2022-08-18T13:23:21.285Z,50.59
2022-08-18T13:24:21.198Z,50.54
2022-08-18T13:25:28.993Z,51.29
2022-08-18T13:26:25.512Z,50.83
2022-08-18T13:27:31.084Z,51.70
2022-08-18T13:28:30.893Z,52.39
2022-08-18T13:29:33.091Z,51.74
2022-08-18T13:30:35.771Z,50.98
2022-08-18T13:31:39.784Z,49.96
2022-08-18T13:32:57.648Z,50.96
2022-08-18T13:33:57.365Z,49.54
2022-08-18T13:34:49.919Z,48.37
2022-08-18T13:35:51.998Z,49.95
2022-08-18T13:36:53.161Z,48.81
2022-08-18T13:37:57.338Z,48.58
2022-08-18T13:39:02.264Z,48.55
2022-08-18T13:40:04.656Z,47.95
2022-08-18T13:41:07.087Z,48.62
2022-08-18T13:42:21.361Z,49.23
2022-08-18T13:43:13.538Z,48.21
2022-08-18T13:44:18.510Z,47.04
2022-08-18T13:45:23.071Z,47.93
2022-08-18T13:46:24.145Z,47.32
2022-08-18T13:47:23.651Z,48.36
2022-08-18T13:48:26.090Z,48.07
2022-08-18T13:49:31.153Z,48.19
2022-08-18T13:50:33.476Z,49.62
2022-08-18T13:51:36.006Z,48.66
2022-08-18T13:52:44.045Z,50.63
2022-08-18T13:53:51.350Z,49.29
2022-08-18T13:54:46.508Z,48.52
2022-08-18T13:55:49.072Z,47.84
2022-08-18T13:56:53.099Z,48.26
2022-08-18T13:57:55.820Z,47.45
2022-08-18T13:58:58.020Z,48.74
2022-08-18T14:00:00.588Z,47.26
2022-08-18T14:01:37.578Z,47.27
2022-08-18T14:02:08.511Z,47.34
2022-08-18T14:03:11.340Z,46.45
2022-08-18T14:04:19.884Z,44.71
2022-08-18T14:05:17.691Z,44.37
2022-08-18T14:06:22.063Z,44.69
2022-08-18T14:07:24.718Z,44.52
2022-08-18T14:08:26.819Z,44.65
2022-08-18T14:09:36.762Z,43.48
2022-08-18T14:10:31.852Z,43.86
2022-08-18T14:11:34.380Z,42.60
2022-08-18T14:12:36.918Z,43.55
2022-08-18T14:13:43.747Z,42.02
2022-08-18T14:14:45.077Z,40.91
2022-08-18T14:15:51.569Z,41.97
2022-08-18T14:16:51.621Z,41.54
2022-08-18T14:17:54.364Z,41.86
2022-08-18T14:18:56.488Z,42.55
2022-08-18T14:20:00.672Z,42.99
2022-08-18T14:21:03.069Z,42.40
2022-08-18T14:22:07.187Z,43.23
2022-08-18T14:23:11.168Z,42.28
2022-08-18T14:24:14.394Z,40.41
2022-08-18T14:25:16.106Z,41.71
2022-08-18T14:26:18.589Z,43.66
2022-08-18T14:36:05.260Z,41.93
2022-08-18T14:36:56.258Z,42.69
2022-08-18T14:37:58.742Z,42.22
2022-08-18T14:39:02.887Z,41.11
2022-08-18T14:40:07.047Z,42.39
2022-08-18T14:41:09.291Z,42.51
2022-08-18T14:42:12.273Z,40.97
2022-08-18T14:43:14.393Z,40.15
2022-08-18T14:44:16.947Z,41.38
2022-08-18T14:45:26.937Z,42.91
2022-08-18T14:46:23.453Z,41.82
2022-08-18T14:47:29.913Z,42.33
2022-08-18T14:48:29.706Z,42.69
2022-08-18T14:49:33.767Z,43.47
2022-08-18T14:50:36.178Z,42.79
2022-08-18T14:51:40.270Z,44.95
2022-08-18T14:52:42.639Z,44.44
2022-08-18T14:53:45.118Z,43.27
2022-08-18T14:54:51.142Z,42.97
2022-08-18T14:55:51.634Z,43.94
2022-08-18T14:56:55.697Z,44.22
2022-08-18T14:57:58.570Z,44.35
2022-08-18T14:59:02.186Z,43.50
2022-08-18T15:00:06.220Z,42.78
2022-08-18T15:01:10.321Z,42.45
2022-08-18T15:02:13.218Z,42.71
2022-08-18T15:03:14.989Z,43.54
2022-08-18T15:04:19.856Z,45.30
2022-08-18T15:05:24.240Z,44.78
2022-08-18T15:06:28.798Z,44.77
2022-08-18T15:07:32.863Z,45.78
2022-08-18T15:08:35.313Z,44.78
2022-08-18T15:09:37.401Z,46.45
2022-08-18T15:10:39.879Z,45.31
2022-08-18T15:11:42.458Z,44.78
2022-08-18T15:12:46.546Z,45.89
2022-08-18T15:13:48.949Z,47.90
2022-08-18T15:14:52.463Z,46.01
2022-08-18T15:15:54.852Z,47.10
2022-08-18T15:16:58.912Z,46.47
2022-08-18T15:18:02.969Z,46.34
2022-08-18T15:19:57.645Z,46.73
2022-08-18T15:20:07.831Z,46.78
2022-08-18T15:21:19.786Z,46.23
2022-08-18T15:22:12.745Z,47.21
2022-08-18T15:23:15.333Z,47.27
2022-08-18T15:24:20.048Z,47.44
2022-08-18T15:25:23.966Z,46.52
2022-08-18T15:26:24.511Z,47.02
2022-08-18T15:27:42.515Z,47.05
2022-08-18T15:28:29.637Z,46.73
2022-08-18T15:29:33.724Z,45.81
2022-08-18T15:30:37.747Z,45.76
2022-08-18T15:32:00.153Z,46.37
2022-08-18T15:32:45.580Z,45.77
2022-08-18T15:33:50.290Z,46.55
2022-08-18T15:34:52.061Z,47.16
2022-08-18T15:35:54.511Z,46.92
2022-08-18T15:36:57.048Z,47.80
2022-08-18T15:37:59.485Z,46.95
2022-08-18T15:39:03.591Z,46.56
2022-08-18T15:40:05.983Z,46.86
2022-08-18T15:41:09.395Z,46.57
2022-08-18T15:42:13.499Z,46.50
2022-08-18T15:43:17.683Z,46.30
2022-08-18T15:44:19.093Z,47.69
2022-08-18T15:45:26.684Z,45.72
2022-08-18T15:46:25.404Z,46.71
2022-08-18T15:47:29.503Z,46.88
2022-08-18T15:48:33.479Z,46.26
2022-08-18T15:49:35.873Z,46.97
2022-08-18T15:50:39.987Z,46.48
2022-08-18T15:51:42.344Z,46.58
2022-08-18T15:52:46.547Z,46.33
2022-08-18T15:53:48.817Z,46.83
2022-08-18T15:54:51.677Z,47.57
2022-08-18T15:55:53.799Z,47.66
2022-08-18T15:56:58.045Z,47.24
2022-08-18T15:57:58.936Z,46.75
2022-08-18T15:59:01.338Z,47.04
2022-08-18T16:00:03.813Z,47.17
2022-08-18T16:01:20.700Z,46.16
2022-08-18T16:02:10.500Z,45.92
2022-08-18T16:03:11.265Z,46.30
2022-08-18T16:04:15.365Z,46.29
2022-08-18T16:05:17.777Z,46.16
2022-08-18T16:06:21.851Z,46.61
2022-08-18T16:07:25.277Z,46.25
2022-08-18T16:08:26.697Z,46.63
2022-08-18T16:09:29.163Z,45.93
2022-08-18T16:10:31.659Z,45.64
2022-08-18T16:11:35.790Z,45.93
2022-08-18T16:12:38.141Z,45.75
2022-08-18T16:13:40.677Z,46.05
2022-08-18T16:14:43.203Z,46.21
2022-08-18T16:15:45.680Z,46.37
2022-08-18T16:16:48.227Z,45.83
2022-08-18T16:17:50.891Z,46.34
2022-08-18T16:18:53.298Z,45.86
2022-08-18T16:19:55.807Z,45.67
2022-08-18T16:20:58.362Z,46.10
2022-08-18T16:22:00.869Z,45.79
2022-08-18T16:23:03.267Z,45.62
2022-08-18T16:24:05.737Z,46.49
2022-08-18T16:25:09.923Z,46.41
2022-08-18T16:26:13.961Z,46.49
2022-08-18T16:27:16.325Z,46.45
2022-08-18T16:28:20.407Z,46.46
2022-08-18T16:29:22.834Z,46.33
2022-08-18T16:30:25.342Z,46.52
2022-08-18T16:31:29.452Z,47.07
2022-08-18T16:32:31.829Z,46.67
2022-08-18T16:33:35.878Z,46.90
2022-08-18T16:34:38.297Z,47.73
2022-08-18T16:35:42.312Z,48.00
2022-08-18T16:36:43.251Z,47.73
2022-08-18T16:37:45.867Z,47.82
2022-08-18T16:38:53.222Z,47.68
2022-08-18T16:39:52.425Z,48.15
2022-08-18T16:40:55.823Z,48.39
2022-08-18T16:41:58.272Z,48.48
2022-08-18T16:43:00.756Z,48.99
2022-08-18T16:44:03.307Z,48.79
2022-08-18T16:45:05.835Z,49.08
2022-08-18T16:46:08.309Z,49.24
2022-08-18T16:47:12.377Z,48.50
2022-08-18T16:48:16.936Z,49.71
2022-08-18T16:49:18.719Z,49.71
2022-08-18T16:50:21.179Z,50.13
2022-08-18T16:51:23.699Z,50.63
2022-08-18T16:52:26.159Z,49.89
2022-08-18T16:53:39.748Z,49.28
2022-08-18T16:54:32.895Z,49.76
2022-08-18T16:55:35.244Z,49.47
2022-08-18T16:56:37.737Z,48.79
2022-08-18T16:57:50.661Z,49.16
2022-08-18T16:58:42.781Z,49.32
2022-08-18T16:59:45.337Z,49.43
2022-08-18T17:00:51.497Z,50.37
2022-08-18T17:01:50.359Z,49.78
2022-08-18T17:02:53.072Z,49.91
2022-08-18T17:03:55.421Z,51.41
2022-08-18T17:04:57.942Z,51.02
2022-08-18T17:06:02.028Z,50.23
2022-08-18T17:07:04.479Z,50.06
2022-08-18T17:08:06.956Z,50.49
2022-08-18T17:09:09.992Z,50.38
2022-08-18T17:10:13.555Z,51.46
2022-08-18T17:11:15.927Z,51.96
2022-08-18T17:12:18.451Z,51.29
2022-08-18T17:13:22.540Z,51.89
2022-08-18T17:14:24.909Z,51.81
2022-08-18T17:15:27.415Z,51.45
2022-08-18T17:16:29.965Z,51.66
2022-08-18T17:17:32.461Z,51.69
2022-08-18T17:27:12.127Z,51.40
2022-08-18T17:28:10.001Z,51.58
2022-08-18T17:29:11.648Z,51.80
2022-08-18T17:30:14.147Z,52.16
2022-08-18T17:31:18.277Z,51.32
2022-08-18T17:32:20.637Z,51.18
2022-08-18T17:33:23.204Z,51.10
2022-08-18T17:34:25.707Z,51.30
2022-08-18T17:35:29.829Z,51.68
2022-08-18T17:36:35.200Z,51.30
2022-08-18T17:37:37.522Z,51.36
2022-08-18T17:38:40.016Z,51.90
2022-08-18T17:39:42.503Z,51.65
2022-08-18T17:40:45.035Z,51.39
2022-08-18T17:41:49.134Z,51.19
2022-08-18T17:42:53.329Z,51.27
2022-08-18T17:43:55.570Z,51.71
2022-08-18T17:44:58.141Z,51.65
2022-08-18T17:46:00.694Z,52.17
2022-08-18T17:47:03.251Z,52.39
2022-08-18T17:48:05.789Z,51.92
2022-08-18T17:49:09.870Z,52.04
2022-08-18T17:50:26.657Z,52.59
2022-08-18T17:51:16.270Z,52.51
2022-08-18T17:52:18.689Z,52.54
2022-08-18T17:53:22.817Z,52.58
2022-08-18T17:54:26.775Z,52.08
2022-08-18T17:55:29.145Z,52.59
2022-08-18T17:56:35.304Z,52.17
2022-08-18T17:57:35.589Z,52.32
2022-08-18T17:58:39.649Z,52.94
2022-08-18T17:59:42.780Z,52.36
2022-08-18T18:00:44.578Z,52.42
2022-08-18T18:01:47.086Z,53.07
2022-08-18T18:02:49.521Z,52.76
2022-08-18T18:03:52.016Z,52.73
2022-08-18T18:04:56.137Z,53.48
2022-08-18T18:05:58.649Z,52.76
2022-08-18T18:07:01.041Z,53.31
2022-08-18T18:08:03.525Z,53.52
2022-08-18T18:09:06.080Z,53.42
2022-08-18T18:10:08.568Z,53.08
2022-08-18T18:11:11.031Z,53.44
2022-08-18T18:12:13.501Z,53.05
2022-08-18T18:13:16.000Z,53.77
2022-08-18T18:14:18.467Z,53.84
2022-08-18T18:15:20.949Z,53.37
2022-08-18T18:16:23.454Z,53.74
2022-08-18T18:17:27.592Z,53.57
2022-08-18T18:18:30.017Z,53.86
2022-08-18T18:19:32.574Z,53.70
2022-08-18T18:20:35.121Z,53.65
2022-08-18T18:21:53.682Z,53.88
2022-08-18T18:22:41.954Z,54.47
2022-08-18T18:23:44.392Z,54.32
2022-08-18T18:24:48.521Z,54.94
2022-08-18T18:25:50.935Z,54.60
2022-08-18T18:26:53.561Z,54.82
2022-08-18T18:27:57.468Z,54.98
2022-08-18T18:28:59.884Z,55.07
2022-08-18T18:30:05.374Z,54.90
2022-08-18T18:31:07.591Z,55.06
2022-08-18T18:32:11.693Z,55.25
2022-08-18T18:33:16.616Z,55.27
2022-08-18T18:34:23.011Z,55.47
2022-08-18T18:35:23.760Z,55.20
2022-08-18T18:36:25.537Z,55.40
2022-08-18T18:45:55.394Z,56.89
2022-08-18T18:47:01.199Z,56.41
2022-08-18T18:48:00.723Z,56.42
2022-08-18T18:49:03.197Z,56.91
2022-08-18T18:50:07.184Z,56.99
2022-08-18T18:51:12.100Z,57.00
2022-08-18T19:00:41.847Z,57.96
2022-08-18T19:10:18.069Z,58.18
2022-08-18T19:19:52.483Z,59.03
2022-08-18T19:29:24.952Z,60.27
2022-08-18T19:30:29.016Z,60.12
2022-08-18T19:40:00.411Z,59.85
2022-08-18T19:49:35.623Z,59.98
2022-08-18T19:59:15.911Z,60.83
2022-08-18T20:08:34.952Z,61.63
2022-08-18T20:18:08.372Z,61.71
2022-08-18T20:27:42.626Z,61.39
2022-08-18T20:28:45.082Z,61.41
2022-08-18T20:38:17.995Z,62.64
2022-08-18T20:47:54.224Z,61.71
2022-08-18T20:57:28.455Z,62.77
2022-08-18T21:07:12.044Z,63.72
2022-08-18T21:16:38.072Z,64.59
2022-08-18T21:26:11.635Z,64.88
2022-08-18T21:35:44.381Z,65.48
2022-08-18T21:45:19.186Z,65.67
2022-08-18T21:54:54.676Z,66.59
2022-08-18T22:04:27.136Z,67.00
2022-08-18T22:14:03.286Z,67.83
2022-08-18T22:23:37.922Z,67.90
2022-08-18T22:33:09.869Z,69.10
2022-08-18T22:42:44.616Z,68.55
2022-08-18T22:52:19.308Z,68.90
2022-08-18T23:01:55.376Z,69.38
2022-08-18T23:11:30.297Z,69.29
2022-08-18T23:21:03.438Z,69.76
2022-08-18T23:30:37.898Z,69.81
2022-08-18T23:40:12.866Z,69.50
2022-08-18T23:49:47.364Z,69.63
2022-08-18T23:59:22.314Z,69.57
